createdAt,value
2019-04-10T15:51:08.822Z,58.20
2019-04-10T15:53:38.434Z,58.60
2019-04-10T15:56:09.652Z,58.80
2019-04-10T15:58:42.011Z,59.20
2019-04-10T16:01:16.002Z,59.30
2019-04-10T16:03:47.175Z,59.50
2019-04-10T16:06:17.477Z,59.70
2019-04-10T16:08:48.280Z,60.20
2019-04-10T16:11:41.719Z,60.00
2019-04-10T16:14:22.041Z,60.00
2019-04-10T16:17:15.168Z,60.30
2019-04-10T16:20:11.334Z,60.60
2019-04-10T16:22:48.663Z,61.30
2019-04-10T16:25:24.036Z,62.00
2019-04-10T16:27:54.093Z,62.60
2019-04-10T16:30:26.292Z,63.30
2019-04-10T16:32:56.562Z,63.60
2019-04-10T16:35:27.699Z,63.90
2019-04-10T16:37:58.163Z,64.20
2019-04-10T16:40:27.960Z,64.30
2019-04-10T16:42:57.908Z,64.00
2019-04-10T16:45:38.675Z,64.30
2019-04-10T16:48:08.715Z,64.50
2019-04-10T16:50:39.723Z,65.10
2019-04-10T16:53:10.376Z,65.50
2019-04-10T16:55:41.018Z,65.70
2019-04-10T16:58:11.866Z,66.60
2019-04-10T17:00:41.833Z,67.50
2019-04-10T17:03:11.807Z,67.40
2019-04-10T17:05:48.001Z,67.20
2019-04-10T17:08:17.763Z,66.80
2019-04-10T17:10:48.286Z,66.50
2019-04-10T17:13:18.325Z,66.30
2019-04-10T17:15:55.493Z,66.10
2019-04-10T17:18:27.474Z,66.20
2019-04-10T17:20:57.209Z,66.30
2019-04-10T17:23:46.877Z,66.30
2019-04-10T17:26:17.160Z,66.40
2019-04-10T17:28:48.300Z,67.00
2019-04-10T17:31:18.394Z,67.20
2019-04-10T17:33:48.143Z,67.10
2019-04-10T17:36:18.913Z,67.10
2019-04-10T17:38:49.057Z,67.70
2019-04-10T17:41:19.673Z,67.60
2019-04-10T17:43:54.711Z,67.70
2019-04-10T17:46:26.937Z,67.90
2019-04-10T17:48:56.964Z,69.00
2019-04-10T17:51:28.179Z,69.00
2019-04-10T17:53:58.235Z,68.90
2019-04-10T17:56:28.351Z,68.70
2019-04-10T17:58:58.728Z,69.60
2019-04-10T18:01:30.138Z,69.30
2019-04-10T18:04:03.142Z,70.20
2019-04-10T18:06:31.802Z,69.60
2019-04-10T18:09:07.630Z,69.80
2019-04-10T18:11:39.493Z,70.60
2019-04-10T18:14:11.046Z,70.60
2019-04-10T18:16:44.299Z,71.10
2019-04-10T18:19:30.358Z,70.80
2019-04-10T18:22:22.579Z,70.60
2019-04-10T18:24:55.798Z,73.20
2019-04-10T18:27:38.631Z,71.00
2019-04-10T18:30:19.966Z,70.30
2019-04-10T18:32:54.029Z,70.40
2019-04-10T18:35:36.827Z,70.20
2019-04-10T18:38:08.946Z,70.10
2019-04-10T18:40:52.279Z,69.70
2019-04-10T18:43:14.308Z,69.60
2019-04-10T18:45:57.496Z,69.40
2019-04-10T18:48:21.342Z,69.20
2019-04-10T18:50:51.646Z,68.90
2019-04-10T18:53:24.687Z,68.70
2019-04-10T18:55:56.672Z,68.70
2019-04-10T18:58:30.127Z,68.50
2019-04-10T19:01:31.751Z,68.90
2019-04-10T19:04:14.034Z,69.20
2019-04-10T19:06:57.158Z,68.50
2019-04-10T19:09:42.883Z,68.60
2019-04-10T19:12:36.861Z,69.00
2019-04-10T19:15:09.113Z,69.10
2019-04-10T19:17:55.296Z,69.30
2019-04-10T19:20:29.101Z,69.70
2019-04-10T19:23:00.984Z,69.70
2019-04-10T19:25:34.501Z,70.00
2019-04-10T19:28:06.570Z,70.10
2019-04-10T19:30:45.552Z,70.10
2019-04-10T19:33:16.909Z,70.40
2019-04-10T19:35:47.566Z,70.30
2019-04-10T19:38:19.003Z,69.90
2019-04-10T19:40:52.105Z,70.00
2019-04-10T19:43:33.256Z,69.90
2019-04-10T19:46:06.217Z,70.10
2019-04-10T19:48:37.571Z,70.20
2019-04-10T19:51:21.769Z,70.40
2019-04-10T19:53:54.364Z,70.70
2019-04-10T19:56:26.741Z,70.50
2019-04-10T19:58:59.297Z,70.50
2019-04-10T20:01:31.236Z,70.40
2019-04-10T20:04:02.063Z,70.60
2019-04-10T20:06:34.227Z,70.50
2019-04-10T20:09:06.391Z,70.70
2019-04-10T20:11:40.309Z,70.80
2019-04-10T20:14:08.412Z,70.80
2019-04-10T20:16:39.270Z,70.80
2019-04-10T20:19:15.173Z,71.00
2019-04-10T20:21:45.154Z,71.10
2019-04-10T20:24:15.199Z,71.00
2019-04-10T20:26:47.541Z,71.10
2019-04-10T20:29:19.900Z,71.30
2019-04-10T20:31:53.333Z,71.20
2019-04-10T20:34:24.264Z,71.20
2019-04-10T20:37:12.945Z,71.30
2019-04-10T20:40:07.512Z,71.70
2019-04-10T20:42:40.354Z,71.90
2019-04-10T20:45:14.207Z,71.70
2019-04-10T20:47:49.836Z,73.50
2019-04-10T20:50:21.709Z,74.10
2019-04-10T20:52:51.584Z,73.00
2019-04-10T20:55:21.615Z,71.50
2019-04-10T20:57:52.074Z,71.20
2019-04-10T21:00:30.738Z,71.00
2019-04-10T21:03:02.751Z,71.10
2019-04-10T21:05:42.359Z,71.20
2019-04-10T21:08:12.631Z,71.20
2019-04-10T21:10:45.018Z,71.20
2019-04-10T21:13:17.131Z,71.20
2019-04-10T21:15:51.564Z,71.20
2019-04-10T21:18:27.575Z,71.30
2019-04-10T21:20:57.665Z,71.40
2019-04-10T21:23:27.384Z,71.40
2019-04-10T21:25:57.432Z,71.40
2019-04-10T21:28:28.301Z,71.40
2019-04-10T21:31:23.605Z,71.40
2019-04-10T21:34:19.720Z,71.40
2019-04-10T21:36:49.613Z,71.40
2019-04-10T21:39:19.308Z,71.30
2019-04-10T21:41:49.150Z,71.30
2019-04-10T21:44:18.880Z,71.20
2019-04-10T21:46:48.688Z,71.40
2019-04-10T21:49:18.452Z,71.50
2019-04-10T21:51:48.109Z,71.60
2019-04-10T21:54:18.489Z,71.70
2019-04-10T21:56:53.431Z,71.80
2019-04-10T21:59:26.771Z,72.00
2019-04-10T22:01:57.036Z,71.90
2019-04-10T22:04:34.923Z,72.00
2019-04-10T22:07:23.829Z,72.00
2019-04-10T22:10:21.456Z,72.00
2019-04-10T22:12:52.645Z,71.90
2019-04-10T22:15:53.711Z,71.90
2019-04-10T22:18:23.752Z,71.90
2019-04-10T22:20:54.176Z,72.00
2019-04-10T22:23:24.511Z,72.10
2019-04-10T22:25:54.299Z,72.10
2019-04-10T22:28:25.362Z,72.00
2019-04-10T22:30:55.339Z,72.20
2019-04-10T22:33:25.030Z,72.30
2019-04-10T22:35:55.930Z,72.40
2019-04-10T22:38:27.276Z,72.50
2019-04-10T22:40:58.122Z,72.50
2019-04-10T22:43:28.246Z,72.50
2019-04-10T22:45:57.990Z,72.50
2019-04-10T22:48:28.687Z,72.60
2019-04-10T22:50:57.648Z,72.30
2019-04-10T22:54:08.119Z,72.30
2019-04-10T22:56:38.230Z,72.00
2019-04-10T22:59:08.181Z,71.80
2019-04-10T23:01:38.203Z,71.70
2019-04-10T23:04:08.010Z,71.60
2019-04-10T23:06:37.839Z,71.60
2019-04-10T23:09:08.915Z,71.40
2019-04-10T23:11:42.214Z,71.40
2019-04-10T23:14:10.276Z,71.30
2019-04-10T23:16:40.111Z,71.40
2019-04-10T23:19:09.959Z,71.40
2019-04-10T23:21:40.762Z,71.80
2019-04-10T23:24:10.008Z,71.40
2019-04-10T23:26:39.865Z,71.50
2019-04-10T23:29:09.497Z,71.40
2019-04-10T23:31:39.526Z,71.20
2019-04-10T23:34:09.478Z,71.00
2019-04-10T23:36:40.304Z,71.20
2019-04-10T23:39:10.107Z,71.10
2019-04-10T23:41:40.017Z,70.90
2019-04-10T23:44:11.003Z,70.70
2019-04-10T23:46:40.880Z,70.70
2019-04-10T23:49:11.152Z,70.30
2019-04-10T23:51:40.747Z,70.60
2019-04-10T23:54:11.162Z,70.50
2019-04-10T23:56:41.936Z,70.50
2019-04-10T23:59:12.708Z,70.90
